Elsberry, MO

7:42 PM CDT on May 28, 2015 (GMT -0500)
Blue Ridge | | Change Station
CLOSE
Current Station
Personal Weather Station
Location: Hardin, IL
Elevation: 748 ft
Nearby Weather Stations

Elev 748 ft 39.15 °N, 90.65 °W | Updated 5 minutes ago

Partly Cloudy
Partly Cloudy
70.3 °F
Feels Like 70.3 °F
N
1.0
Wind Variable Wind from SE
Gusts 2.0 mph

Today
High -- | Low -- °F
--% Chance of Precip.
Yesterday
High -- | Low -- °F
Precip. -- in
5:40 AM 8:20 PM
Waxing Gibbous, 79% visible
Pressure 30.02 in
Visibility 10.0 miles
Clouds Few 4400 ft
Dew Point 67 °F
Humidity 88%
Rainfall 0.11 in
Snow Depth Not available.
UV 1 out of 12
Pollen 8.20 out of 12
Air Quality Not available.
Flu Activity Sporadic
METAR KSET 282354Z AUTO 36004KT 10SM FEW044 24/21 A3003 RMK AO2 SLP164 60011 T02440206 10294 20200 56016 TSNO

More Conditions Fewer Conditions

Pressure 30.02 in
Visibility 10.0 miles
Clouds Few 4400 ft
Dew Point 67 °F
Humidity 88%
Rainfall 0.11 in
Snow Depth Not available.
UV 1 out of 12
Pollen 8.20 out of 12
Air Quality Not available.
Flu Activity Sporadic
METAR KSET 282354Z AUTO 36004KT 10SM FEW044 24/21 A3003 RMK AO2 SLP164 60011 T02440206 10294 20200 56016 TSNO

More Conditions Fewer Conditions

10-Day Weather Forecast

Almanac

Astronomy

May. 28, 2015 Rise Set
Actual Time
Civil Twilight
Nautical Twilight
Astronomical Twilight
Moon
Length of Visible Light
Length of Day
Tomorrow will be .
, % of the Moon is Illuminated

Today's Extremes

State Highs State Lows

Community

WunderPhotos

Upload Photos

1,825,100 photos uploaded!

WunderBlogs® & News

Nearby

Air Quality

  Air Quality AQ Index Pollutant
Not available.

Snow Depth

Station Depth Elevation

Earthquake Activity

City Distance Mag. Time & Date
Minimum magnitude displayed is 2.5.

Coastal Water Temperatures

Place Temperature

Stations

Nearby Weather Stations

Station Location Temp. Windchill Dew Point Humidity Wind Precip. Elev Updated Type